Time;durP1;ratioP1;P1;durP2;ratioP2;P2;SDS_P1;SDS_P2;PMS_P1;PMS_P2;Temp;Humidity;BMP_temperature;BMP_pressure;BME280_temperature;BME280_humidity;BME280_pressure;Samples;Min_cycle;Max_cycle;Signal;HPM_P1;HPM_P2
2021/05/26 00:00:41;;;;;;;7.68;6.97;;;;;;;;;;5067870;28;20462;-78
2021/05/26 00:03:07;;;;;;;7.40;6.80;;;;;;;;;;5073247;28;20651;-78
2021/05/26 00:05:33;;;;;;;7.22;6.50;;;;;;;;;;5072007;28;20462;-78
2021/05/26 00:07:59;;;;;;;8.95;7.57;;;;;;;;;;5073396;28;20253;-78
2021/05/26 00:10:25;;;;;;;7.00;6.30;;;;;;;;;;5065092;28;20606;-77
2021/05/26 00:12:51;;;;;;;7.22;6.53;;;;;;;;;;5068149;28;20469;-77
2021/05/26 00:15:18;;;;;;;7.03;6.32;;;;;;;;;;5073269;28;20525;-79
2021/05/26 00:17:44;;;;;;;7.10;6.50;;;;;;;;;;5073038;28;20689;-78
2021/05/26 00:20:10;;;;;;;6.88;6.28;;;;;;;;;;5064463;28;20227;-79
2021/05/26 00:22:36;;;;;;;7.13;6.53;;;;;;;;;;5075111;28;20176;-79
2021/05/26 00:25:03;;;;;;;6.70;6.10;;;;;;;;;;5077325;28;20207;-79
2021/05/26 00:27:29;;;;;;;7.50;6.88;;;;;;;;;;5073113;28;20645;-78
2021/05/26 00:29:55;;;;;;;7.90;7.25;;;;;;;;;;5081529;28;20191;-79
2021/05/26 00:32:21;;;;;;;7.60;7.00;;;;;;;;;;5073364;28;20207;-79
2021/05/26 00:34:47;;;;;;;7.85;7.25;;;;;;;;;;5072750;28;20415;-77
2021/05/26 00:37:13;;;;;;;7.28;6.63;;;;;;;;;;5073354;28;20221;-79
2021/05/26 00:39:39;;;;;;;7.38;6.72;;;;;;;;;;5075522;28;20710;-78
2021/05/26 00:42:06;;;;;;;7.53;6.93;;;;;;;;;;5073272;28;20644;-79
2021/05/26 00:44:32;;;;;;;8.00;7.30;;;;;;;;;;5076413;28;20257;-77
2021/05/26 00:46:58;;;;;;;8.77;7.93;;;;;;;;;;5071357;28;20336;-79
2021/05/26 00:49:24;;;;;;;8.15;7.45;;;;;;;;;;5071180;28;20230;-76
2021/05/26 00:51:50;;;;;;;9.98;8.05;;;;;;;;;;5069207;28;20183;-78
2021/05/26 00:54:16;;;;;;;9.18;8.27;;;;;;;;;;5077976;28;20180;-77
2021/05/26 00:56:42;;;;;;;11.05;9.93;;;;;;;;;;5072870;28;20203;-77
2021/05/26 00:59:08;;;;;;;11.85;10.65;;;;;;;;;;5072066;28;20184;-77
2021/05/26 01:01:35;;;;;;;10.70;9.70;;;;;;;;;;5072473;28;20180;-79
2021/05/26 01:04:01;;;;;;;10.82;9.82;;;;;;;;;;5072413;28;20202;-77
2021/05/26 01:06:27;;;;;;;11.00;10.00;;;;;;;;;;5075613;28;20199;-77
2021/05/26 01:08:53;;;;;;;10.88;9.88;;;;;;;;;;5077379;28;20204;-77
2021/05/26 01:11:19;;;;;;;11.98;10.15;;;;;;;;;;5072544;28;20200;-77
2021/05/26 01:13:45;;;;;;;11.18;10.07;;;;;;;;;;5072531;28;20514;-78
2021/05/26 01:16:11;;;;;;;11.23;10.20;;;;;;;;;;5075325;28;20192;-78
2021/05/26 01:18:38;;;;;;;11.60;10.50;;;;;;;;;;5072485;28;20267;-77
2021/05/26 01:21:05;;;;;;;13.00;11.80;;;;;;;;;;5072380;28;20192;-78
2021/05/26 01:23:32;;;;;;;11.35;10.23;;;;;;;;;;5072334;28;20607;-81
2021/05/26 01:25:58;;;;;;;12.20;11.05;;;;;;;;;;5077824;28;20203;-78
2021/05/26 01:28:25;;;;;;;13.88;11.65;;;;;;;;;;5072377;28;20203;-78
2021/05/26 01:30:52;;;;;;;12.60;11.40;;;;;;;;;;5082298;28;20673;-78
2021/05/26 01:33:19;;;;;;;13.90;12.60;;;;;;;;;;5076057;28;20191;-79
2021/05/26 01:35:46;;;;;;;12.23;11.02;;;;;;;;;;5076277;28;20180;-80
2021/05/26 01:38:13;;;;;;;14.15;12.27;;;;;;;;;;5078962;28;20195;-79
2021/05/26 01:40:39;;;;;;;14.25;12.75;;;;;;;;;;5087050;28;20557;-78
2021/05/26 01:43:05;;;;;;;14.90;13.35;;;;;;;;;;5075915;28;20258;-78
2021/05/26 01:45:31;;;;;;;14.05;12.65;;;;;;;;;;5082092;28;20593;-78
2021/05/26 01:47:57;;;;;;;16.17;12.60;;;;;;;;;;5076021;28;20190;-79
2021/05/26 01:50:23;;;;;;;15.10;13.63;;;;;;;;;;5075788;28;20189;-79
2021/05/26 01:52:50;;;;;;;14.18;12.48;;;;;;;;;;5087666;28;20654;-78
2021/05/26 01:55:17;;;;;;;14.98;13.48;;;;;;;;;;5055916;28;20215;-78
2021/05/26 01:57:44;;;;;;;15.40;13.80;;;;;;;;;;5067212;28;20176;-78
2021/05/26 02:00:12;;;;;;;15.32;13.93;;;;;;;;;;5060479;28;20197;-78
2021/05/26 02:02:38;;;;;;;15.93;14.35;;;;;;;;;;5068201;28;20185;-79
2021/05/26 02:05:06;;;;;;;16.52;14.93;;;;;;;;;;5058795;28;20195;-79
2021/05/26 02:07:32;;;;;;;15.95;14.45;;;;;;;;;;5061202;28;20189;-79
2021/05/26 02:09:58;;;;;;;17.65;15.85;;;;;;;;;;5080460;28;20210;-78
2021/05/26 02:12:24;;;;;;;16.67;14.98;;;;;;;;;;5055969;28;20170;-78
2021/05/26 02:14:52;;;;;;;16.30;14.60;;;;;;;;;;5069419;28;20625;-79
2021/05/26 02:17:18;;;;;;;15.60;14.00;;;;;;;;;;5060324;28;20227;-78
2021/05/26 02:19:44;;;;;;;19.20;16.30;;;;;;;;;;5055144;28;20197;-76
2021/05/26 02:22:10;;;;;;;15.07;13.38;;;;;;;;;;5055591;28;20192;-78
2021/05/26 02:24:36;;;;;;;16.27;13.80;;;;;;;;;;5057502;28;20181;-77
2021/05/26 02:27:02;;;;;;;16.30;14.60;;;;;;;;;;5074383;28;20257;-77
2021/05/26 02:29:28;;;;;;;16.50;14.90;;;;;;;;;;5072715;28;20223;-78
2021/05/26 02:31:54;;;;;;;15.68;14.05;;;;;;;;;;5072568;28;20169;-78
2021/05/26 02:34:20;;;;;;;16.90;13.55;;;;;;;;;;5061209;28;20180;-79
2021/05/26 02:36:46;;;;;;;14.93;13.40;;;;;;;;;;5055854;28;20254;-77
2021/05/26 02:39:12;;;;;;;16.50;14.80;;;;;;;;;;5070826;28;20211;-78
2021/05/26 02:41:38;;;;;;;14.25;12.90;;;;;;;;;;5067139;28;20185;-78
2021/05/26 02:44:05;;;;;;;14.35;12.88;;;;;;;;;;5060764;28;20180;-79
2021/05/26 02:46:31;;;;;;;17.80;14.20;;;;;;;;;;5075820;28;20199;-79
2021/05/26 02:48:57;;;;;;;15.25;13.65;;;;;;;;;;5061029;28;20181;-79
2021/05/26 02:51:23;;;;;;;14.70;13.00;;;;;;;;;;5067348;28;20206;-78
2021/05/26 02:53:49;;;;;;;14.75;12.98;;;;;;;;;;5057870;28;20197;-80
2021/05/26 02:56:15;;;;;;;12.45;11.25;;;;;;;;;;5065624;28;20192;-78
2021/05/26 02:58:41;;;;;;;14.18;12.70;;;;;;;;;;5067192;28;20176;-76
2021/05/26 03:01:07;;;;;;;13.10;11.70;;;;;;;;;;5082871;28;20200;-78
2021/05/26 03:03:34;;;;;;;13.75;12.45;;;;;;;;;;5060862;28;20227;-77
2021/05/26 03:06:00;;;;;;;13.57;11.90;;;;;;;;;;5070055;28;20266;-78
2021/05/26 03:08:26;;;;;;;12.77;11.48;;;;;;;;;;5055279;28;20181;-78
2021/05/26 03:10:55;;;;;;;12.45;11.23;;;;;;;;;;5068270;28;20188;-79
2021/05/26 03:13:22;;;;;;;12.05;10.82;;;;;;;;;;5071479;28;20180;-76
2021/05/26 03:15:48;;;;;;;12.60;11.43;;;;;;;;;;5087011;28;20184;-78
2021/05/26 03:18:14;;;;;;;12.95;11.75;;;;;;;;;;5073931;28;20194;-78
2021/05/26 03:20:40;;;;;;;13.23;11.30;;;;;;;;;;5074050;28;20286;-79
2021/05/26 03:23:06;;;;;;;13.30;12.00;;;;;;;;;;5073956;28;20184;-78
2021/05/26 03:25:32;;;;;;;14.52;12.82;;;;;;;;;;5073999;28;20245;-76
2021/05/26 03:27:58;;;;;;;14.57;12.98;;;;;;;;;;5073768;28;20172;-77
2021/05/26 03:30:24;;;;;;;14.48;12.98;;;;;;;;;;5077551;28;20295;-77
2021/05/26 03:32:50;;;;;;;16.52;14.55;;;;;;;;;;5073832;28;20259;-77
2021/05/26 03:35:16;;;;;;;16.58;14.30;;;;;;;;;;5078289;28;20176;-77
2021/05/26 03:37:43;;;;;;;16.42;14.73;;;;;;;;;;5075292;28;20228;-78
2021/05/26 03:40:11;;;;;;;18.20;14.95;;;;;;;;;;5079319;28;20206;-78
2021/05/26 03:42:37;;;;;;;19.55;15.70;;;;;;;;;;5083920;28;20188;-79
2021/05/26 03:45:04;;;;;;;21.50;15.18;;;;;;;;;;5074448;28;20238;-78
2021/05/26 03:47:30;;;;;;;18.45;14.98;;;;;;;;;;5075310;28;20277;-79
2021/05/26 03:49:56;;;;;;;17.48;15.57;;;;;;;;;;5072232;28;20196;-78
2021/05/26 03:52:22;;;;;;;18.80;16.05;;;;;;;;;;5063364;28;20537;-78
2021/05/26 03:54:48;;;;;;;18.90;16.13;;;;;;;;;;5073648;28;20172;-79
2021/05/26 03:57:14;;;;;;;16.67;14.98;;;;;;;;;;5074271;28;20179;-78
2021/05/26 03:59:40;;;;;;;18.98;14.68;;;;;;;;;;5073775;28;20558;-78
2021/05/26 04:02:06;;;;;;;16.63;14.25;;;;;;;;;;5075029;28;20175;-78
2021/05/26 04:04:33;;;;;;;18.00;14.52;;;;;;;;;;5073452;28;20184;-78
2021/05/26 04:06:59;;;;;;;18.55;15.20;;;;;;;;;;5074269;28;20291;-79
2021/05/26 04:09:25;;;;;;;17.15;15.35;;;;;;;;;;5076846;28;20321;-78
2021/05/26 04:11:51;;;;;;;19.20;14.35;;;;;;;;;;5075608;28;20210;-77
2021/05/26 04:14:17;;;;;;;16.65;14.88;;;;;;;;;;5068857;28;20180;-78
2021/05/26 04:16:44;;;;;;;16.55;14.10;;;;;;;;;;5078190;28;20246;-77
2021/05/26 04:19:10;;;;;;;15.23;13.70;;;;;;;;;;5073232;28;20695;-79
2021/05/26 04:21:36;;;;;;;15.70;13.35;;;;;;;;;;5083001;28;20229;-79
2021/05/26 04:24:02;;;;;;;14.40;12.77;;;;;;;;;;5082015;28;20176;-80
2021/05/26 04:26:28;;;;;;;15.70;14.10;;;;;;;;;;5073284;28;20196;-79
2021/05/26 04:28:54;;;;;;;15.52;13.82;;;;;;;;;;5080416;28;20258;-78
2021/05/26 04:31:20;;;;;;;15.13;13.45;;;;;;;;;;5073217;28;20241;-78
2021/05/26 04:33:46;;;;;;;19.65;14.18;;;;;;;;;;5071843;28;20587;-79
2021/05/26 04:36:12;;;;;;;14.38;12.82;;;;;;;;;;5072077;28;20183;-79
2021/05/26 04:38:38;;;;;;;15.85;13.52;;;;;;;;;;5074008;28;20533;-78
2021/05/26 04:41:05;;;;;;;14.27;12.85;;;;;;;;;;5073577;28;20196;-78
2021/05/26 04:43:32;;;;;;;14.63;13.15;;;;;;;;;;5073578;28;20187;-80
2021/05/26 04:46:00;;;;;;;15.93;14.07;;;;;;;;;;5075599;28;20549;-77
2021/05/26 04:48:26;;;;;;;15.52;13.35;;;;;;;;;;5072765;28;20179;-78
2021/05/26 04:50:52;;;;;;;17.73;12.70;;;;;;;;;;5076311;28;20531;-78
2021/05/26 04:53:18;;;;;;;14.93;13.20;;;;;;;;;;5073694;28;20221;-78
2021/05/26 04:55:44;;;;;;;17.45;13.30;;;;;;;;;;5073956;28;20419;-78
2021/05/26 04:58:10;;;;;;;14.97;13.33;;;;;;;;;;5071946;28;20176;-77
2021/05/26 05:00:36;;;;;;;15.05;13.55;;;;;;;;;;5075639;28;20441;-77
2021/05/26 05:03:02;;;;;;;14.30;12.90;;;;;;;;;;5083282;28;20186;-77
2021/05/26 05:05:32;;;;;;;14.70;13.15;;;;;;;;;;5081306;28;20595;-78
2021/05/26 05:07:58;;;;;;;15.00;13.50;;;;;;;;;;5083083;28;20198;-78
2021/05/26 05:10:24;;;;;;;14.07;12.77;;;;;;;;;;5068173;28;20195;-79
2021/05/26 05:12:50;;;;;;;20.45;16.65;;;;;;;;;;5073336;28;20181;-78
2021/05/26 05:15:17;;;;;;;13.10;11.80;;;;;;;;;;5084569;28;20188;-78
2021/05/26 05:17:45;;;;;;;13.02;11.82;;;;;;;;;;5087105;28;20175;-78
2021/05/26 05:20:12;;;;;;;13.07;11.75;;;;;;;;;;5060664;28;20204;-78
2021/05/26 05:22:38;;;;;;;13.18;11.45;;;;;;;;;;5058392;28;20185;-76
2021/05/26 05:25:04;;;;;;;13.67;12.27;;;;;;;;;;5065435;28;20180;-78
2021/05/26 05:27:30;;;;;;;13.13;12.02;;;;;;;;;;5074603;28;20420;-77
2021/05/26 05:29:56;;;;;;;13.00;11.80;;;;;;;;;;5062917;28;20212;-78
2021/05/26 05:32:22;;;;;;;14.85;13.38;;;;;;;;;;5066160;28;20622;-78
2021/05/26 05:34:48;;;;;;;14.60;13.17;;;;;;;;;;5072229;28;20230;-77
2021/05/26 05:37:14;;;;;;;14.82;13.50;;;;;;;;;;5071634;28;20419;-78
2021/05/26 05:39:40;;;;;;;15.73;12.95;;;;;;;;;;5063951;28;20201;-77
2021/05/26 05:42:06;;;;;;;14.50;13.20;;;;;;;;;;5062878;28;20188;-77
2021/05/26 05:44:32;;;;;;;15.60;14.00;;;;;;;;;;5063705;28;20470;-75
2021/05/26 05:46:58;;;;;;;16.98;13.65;;;;;;;;;;5070747;28;20240;-79
2021/05/26 05:49:24;;;;;;;14.07;12.77;;;;;;;;;;5058554;28;20605;-77
2021/05/26 05:51:50;;;;;;;14.80;13.32;;;;;;;;;;5062166;28;20168;-79
2021/05/26 05:54:16;;;;;;;15.52;14.02;;;;;;;;;;5063340;28;20181;-78
2021/05/26 05:56:42;;;;;;;14.18;12.68;;;;;;;;;;5069395;28;20169;-78
2021/05/26 05:59:08;;;;;;;13.32;12.05;;;;;;;;;;5069848;28;20288;-78
2021/05/26 06:01:34;;;;;;;13.60;12.30;;;;;;;;;;5066420;28;20195;-78
2021/05/26 06:04:00;;;;;;;14.15;12.85;;;;;;;;;;5067287;28;20581;-77
2021/05/26 06:06:26;;;;;;;13.80;12.37;;;;;;;;;;5068990;28;20208;-77
2021/05/26 06:08:52;;;;;;;13.90;12.60;;;;;;;;;;5072098;28;20422;-77
2021/05/26 06:11:18;;;;;;;13.98;12.57;;;;;;;;;;5066006;28;20191;-77
2021/05/26 06:13:48;;;;;;;13.23;11.93;;;;;;;;;;5062378;28;20190;-78
2021/05/26 06:16:14;;;;;;;14.43;13.02;;;;;;;;;;5061540;28;20189;-77
2021/05/26 06:18:40;;;;;;;13.85;12.52;;;;;;;;;;5055374;28;20669;-78
2021/05/26 06:21:06;;;;;;;13.98;12.48;;;;;;;;;;5055685;28;20554;-77
2021/05/26 06:23:32;;;;;;;14.88;12.48;;;;;;;;;;5056694;28;20243;-78
2021/05/26 06:25:58;;;;;;;15.23;13.80;;;;;;;;;;5065068;28;20684;-78
2021/05/26 06:28:24;;;;;;;14.15;12.75;;;;;;;;;;5060150;28;20173;-77
2021/05/26 06:30:50;;;;;;;13.80;12.60;;;;;;;;;;5055479;28;20227;-79
2021/05/26 06:33:16;;;;;;;14.60;13.20;;;;;;;;;;5058152;28;20442;-78
2021/05/26 06:35:42;;;;;;;13.90;12.70;;;;;;;;;;5072439;28;20176;-79
2021/05/26 06:38:08;;;;;;;14.00;12.70;;;;;;;;;;5057027;28;20946;-77
2021/05/26 06:40:34;;;;;;;14.73;13.23;;;;;;;;;;5055229;28;20410;-79
2021/05/26 06:43:00;;;;;;;14.90;13.38;;;;;;;;;;5053200;28;20753;-78
2021/05/26 06:45:26;;;;;;;15.17;13.70;;;;;;;;;;5060279;28;20200;-77
2021/05/26 06:47:52;;;;;;;14.47;13.07;;;;;;;;;;5057634;28;20483;-77
2021/05/26 06:50:18;;;;;;;13.15;11.95;;;;;;;;;;5065611;28;20473;-78
2021/05/26 06:52:44;;;;;;;13.98;12.57;;;;;;;;;;5050814;28;20690;-78
2021/05/26 06:55:11;;;;;;;13.50;12.13;;;;;;;;;;5058957;28;20268;-77
2021/05/26 06:57:37;;;;;;;12.52;11.32;;;;;;;;;;5052719;28;20180;-78
2021/05/26 07:00:04;;;;;;;13.75;12.38;;;;;;;;;;5065902;28;20297;-79
2021/05/26 07:02:30;;;;;;;13.88;12.05;;;;;;;;;;5052541;28;20177;-79
2021/05/26 07:04:57;;;;;;;12.88;11.73;;;;;;;;;;5054561;28;20189;-77
2021/05/26 07:07:23;;;;;;;13.25;12.02;;;;;;;;;;5063937;28;20632;-80
2021/05/26 07:09:49;;;;;;;12.85;11.63;;;;;;;;;;5056565;28;20236;-77
2021/05/26 07:12:15;;;;;;;12.73;11.38;;;;;;;;;;5050545;28;20208;-77
2021/05/26 07:14:42;;;;;;;10.48;9.48;;;;;;;;;;5052562;28;20181;-78
2021/05/26 07:17:08;;;;;;;11.98;10.77;;;;;;;;;;5059894;28;20831;-78
2021/05/26 07:19:34;;;;;;;10.00;9.10;;;;;;;;;;5050418;28;20209;-78
2021/05/26 07:22:00;;;;;;;10.13;9.23;;;;;;;;;;5058147;28;20235;-77
2021/05/26 07:24:26;;;;;;;10.23;9.23;;;;;;;;;;5050281;28;20690;-76
2021/05/26 07:26:52;;;;;;;8.97;8.27;;;;;;;;;;5052540;28;20214;-77
2021/05/26 07:29:18;;;;;;;9.35;8.52;;;;;;;;;;5063435;28;20535;-76
2021/05/26 07:31:44;;;;;;;8.10;7.47;;;;;;;;;;5052977;28;20561;-77
2021/05/26 07:34:13;;;;;;;8.20;7.50;;;;;;;;;;5054402;28;20180;-78
2021/05/26 07:36:39;;;;;;;8.40;7.70;;;;;;;;;;5055279;28;20234;-78
2021/05/26 07:39:05;;;;;;;8.25;7.47;;;;;;;;;;5072641;28;20219;-77
2021/05/26 07:41:31;;;;;;;8.70;8.00;;;;;;;;;;5059767;28;20268;-79
2021/05/26 07:43:58;;;;;;;9.63;8.90;;;;;;;;;;5049997;28;20272;-78
2021/05/26 07:46:24;;;;;;;9.30;8.60;;;;;;;;;;5056313;28;20274;-77
2021/05/26 07:48:52;;;;;;;9.80;8.80;;;;;;;;;;5056621;28;20204;-79
2021/05/26 07:51:20;;;;;;;12.38;9.45;;;;;;;;;;5066454;28;20290;-78
2021/05/26 07:53:46;;;;;;;10.80;9.75;;;;;;;;;;5062071;28;20601;-78
2021/05/26 07:56:12;;;;;;;11.67;10.50;;;;;;;;;;5071120;28;20212;-76
2021/05/26 07:58:38;;;;;;;13.57;11.82;;;;;;;;;;5058065;28;20426;-74
2021/05/26 08:01:05;;;;;;;15.40;13.88;;;;;;;;;;5069709;28;20212;-76
2021/05/26 08:03:31;;;;;;;16.70;15.02;;;;;;;;;;5064154;28;20221;-76
2021/05/26 08:05:57;;;;;;;18.93;16.90;;;;;;;;;;5073021;28;20204;-76
2021/05/26 08:08:23;;;;;;;20.98;18.58;;;;;;;;;;5056304;28;20443;-76
2021/05/26 08:10:49;;;;;;;23.05;17.95;;;;;;;;;;5053223;28;20632;-75
2021/05/26 08:13:15;;;;;;;24.85;21.00;;;;;;;;;;5060112;28;20556;-77
2021/05/26 08:15:41;;;;;;;24.00;20.40;;;;;;;;;;5057822;28;20189;-77
2021/05/26 08:18:07;;;;;;;22.90;20.27;;;;;;;;;;5053747;28;20198;-74
2021/05/26 08:20:33;;;;;;;23.40;20.67;;;;;;;;;;5059027;28;20201;-79
2021/05/26 08:22:59;;;;;;;25.25;20.05;;;;;;;;;;5052099;28;20411;-76
2021/05/26 08:25:25;;;;;;;26.10;22.50;;;;;;;;;;5050810;28;20205;-76
2021/05/26 08:27:51;;;;;;;30.27;23.05;;;;;;;;;;5066613;28;20187;-78
2021/05/26 08:30:17;;;;;;;27.15;22.70;;;;;;;;;;5050065;28;20201;-78
2021/05/26 08:32:45;;;;;;;25.58;22.65;;;;;;;;;;5056490;28;20188;-77
2021/05/26 08:35:11;;;;;;;29.92;22.55;;;;;;;;;;5055329;28;20200;-77
2021/05/26 08:37:37;;;;;;;27.33;22.05;;;;;;;;;;5058463;28;20192;-77
2021/05/26 08:40:03;;;;;;;26.52;21.95;;;;;;;;;;5061840;28;20562;-78
2021/05/26 08:42:30;;;;;;;29.85;24.58;;;;;;;;;;5079916;28;20634;-77
2021/05/26 08:44:56;;;;;;;31.60;24.73;;;;;;;;;;5049629;28;20231;-76
2021/05/26 08:47:23;;;;;;;30.10;22.13;;;;;;;;;;5057122;28;20222;-76
2021/05/26 08:49:49;;;;;;;24.58;20.52;;;;;;;;;;5049268;28;20196;-78
2021/05/26 08:52:16;;;;;;;21.95;19.55;;;;;;;;;;5048957;28;20208;-80
2021/05/26 08:54:45;;;;;;;24.40;20.13;;;;;;;;;;5048875;28;20189;-78
2021/05/26 08:57:11;;;;;;;21.77;19.13;;;;;;;;;;5048943;28;20181;-76
2021/05/26 08:59:37;;;;;;;22.27;18.60;;;;;;;;;;5062358;28;20201;-77
2021/05/26 09:02:03;;;;;;;18.75;16.52;;;;;;;;;;5077073;28;20252;-79
2021/05/26 09:04:29;;;;;;;17.67;15.93;;;;;;;;;;5058212;28;20209;-79
2021/05/26 09:07:09;;;;;;;17.70;15.70;;;;;;;;;;5048907;28;20212;-79
2021/05/26 09:09:49;;;;;;;18.77;16.73;;;;;;;;;;5055716;28;20698;-77
2021/05/26 09:12:16;;;;;;;18.40;16.60;;;;;;;;;;5048633;28;20261;-76
2021/05/26 09:14:42;;;;;;;19.02;17.20;;;;;;;;;;5067151;28;20189;-77
2021/05/26 09:17:09;;;;;;;17.30;15.57;;;;;;;;;;5070458;28;20183;-79
2021/05/26 09:19:35;;;;;;;15.88;14.48;;;;;;;;;;5051923;28;20207;-80
2021/05/26 09:22:08;;;;;;;16.25;13.95;;;;;;;;;;5058537;28;20275;-78
2021/05/26 09:24:34;;;;;;;13.57;11.75;;;;;;;;;;5048841;28;20291;-78
2021/05/26 09:27:02;;;;;;;12.55;11.35;;;;;;;;;;5068986;28;20232;-78
2021/05/26 09:29:29;;;;;;;15.75;12.13;;;;;;;;;;5061329;28;20759;-80
2021/05/26 09:32:10;;;;;;;14.48;13.18;;;;;;;;;;5056434;28;20215;-80
2021/05/26 09:34:38;;;;;;;13.38;11.60;;;;;;;;;;5048556;28;20664;-79
2021/05/26 09:37:05;;;;;;;12.68;11.43;;;;;;;;;;5053203;28;20192;-80
2021/05/26 09:39:44;;;;;;;13.18;11.98;;;;;;;;;;5052403;28;20568;-79
2021/05/26 09:42:22;;;;;;;11.93;10.60;;;;;;;;;;5052850;28;20187;-78
2021/05/26 09:45:12;;;;;;;11.25;10.25;;;;;;;;;;5058549;28;20188;-78
2021/05/26 09:47:41;;;;;;;12.02;10.80;;;;;;;;;;5048416;28;20212;-80
2021/05/26 09:50:18;;;;;;;12.50;11.10;;;;;;;;;;5058165;28;20231;-78
2021/05/26 09:52:51;;;;;;;12.70;11.40;;;;;;;;;;5068863;28;20187;-76
2021/05/26 09:55:19;;;;;;;13.77;12.43;;;;;;;;;;5067898;28;20198;-76
2021/05/26 09:57:49;;;;;;;16.33;14.15;;;;;;;;;;5053313;28;20658;-74
2021/05/26 10:00:16;;;;;;;15.20;13.65;;;;;;;;;;5059392;28;20586;-75
2021/05/26 10:02:42;;;;;;;17.60;15.50;;;;;;;;;;5054449;28;20193;-76
2021/05/26 10:05:08;;;;;;;16.52;14.70;;;;;;;;;;5057395;28;20237;-79
2021/05/26 10:07:35;;;;;;;13.55;12.35;;;;;;;;;;5054051;28;20228;-78
2021/05/26 10:10:01;;;;;;;10.82;9.93;;;;;;;;;;5055534;28;20270;-76
2021/05/26 10:12:27;;;;;;;12.27;11.10;;;;;;;;;;5054453;28;20170;-76
2021/05/26 10:14:54;;;;;;;11.77;10.70;;;;;;;;;;5053781;28;20412;-78
2021/05/26 10:17:23;;;;;;;11.35;10.45;;;;;;;;;;5053986;28;20426;-77
2021/05/26 10:19:50;;;;;;;11.77;10.68;;;;;;;;;;5052549;28;20879;-78
2021/05/26 10:22:16;;;;;;;9.00;8.10;;;;;;;;;;5066898;28;20177;-76
2021/05/26 10:24:45;;;;;;;8.30;7.60;;;;;;;;;;5060364;28;20480;-79
2021/05/26 10:27:13;;;;;;;10.00;7.30;;;;;;;;;;5052038;28;20464;-79
2021/05/26 10:29:40;;;;;;;6.70;6.17;;;;;;;;;;5066010;28;20443;-78
2021/05/26 10:32:15;;;;;;;6.07;5.67;;;;;;;;;;5058105;28;20418;-78
2021/05/26 10:34:47;;;;;;;7.10;6.47;;;;;;;;;;5063248;28;20481;-78
2021/05/26 10:37:15;;;;;;;10.70;6.80;;;;;;;;;;5058728;28;20992;-78
2021/05/26 10:39:41;;;;;;;7.03;5.27;;;;;;;;;;5060204;28;21062;-77
2021/05/26 10:42:24;;;;;;;5.80;5.30;;;;;;;;;;5051274;28;20439;-80
2021/05/26 10:45:07;;;;;;;6.37;4.90;;;;;;;;;;5051089;28;20480;-79
2021/05/26 10:47:36;;;;;;;5.37;4.87;;;;;;;;;;5052617;28;21073;-79
2021/05/26 10:50:06;;;;;;;5.77;5.27;;;;;;;;;;5064569;28;20444;-80
2021/05/26 10:52:50;;;;;;;5.70;5.00;;;;;;;;;;5068841;28;20424;-78
2021/05/26 10:55:34;;;;;;;5.70;4.20;;;;;;;;;;5071474;28;20404;-79
2021/05/26 10:58:10;;;;;;;4.70;4.17;;;;;;;;;;5074865;28;20935;-80
2021/05/26 11:00:36;;;;;;;4.90;4.60;;;;;;;;;;5070688;28;20428;-80
2021/05/26 11:03:21;;;;;;;4.93;4.50;;;;;;;;;;5068604;28;20460;-79
2021/05/26 11:05:47;;;;;;;5.70;4.30;;;;;;;;;;5069944;28;20562;-77
2021/05/26 11:08:46;;;;;;;6.87;4.70;;;;;;;;;;5071625;28;20432;-79
2021/05/26 11:11:24;;;;;;;4.27;3.87;;;;;;;;;;5069159;28;20541;-78
2021/05/26 11:14:00;;;;;;;5.63;5.23;;;;;;;;;;5074469;28;20433;-78
2021/05/26 11:16:41;;;;;;;5.77;5.27;;;;;;;;;;5070351;28;20810;-78
2021/05/26 11:19:12;;;;;;;5.70;5.15;;;;;;;;;;5069884;28;20438;-74
2021/05/26 11:21:42;;;;;;;3.95;3.65;;;;;;;;;;5074544;28;20186;-74
2021/05/26 11:24:08;;;;;;;5.10;4.60;;;;;;;;;;5068707;28;20249;-72
2021/05/26 11:26:37;;;;;;;6.85;6.15;;;;;;;;;;5070213;28;20572;-75
2021/05/26 11:29:04;;;;;;;7.20;6.60;;;;;;;;;;5069898;28;20181;-76
2021/05/26 11:31:30;;;;;;;6.40;5.90;;;;;;;;;;5081907;28;20180;-74
2021/05/26 11:33:56;;;;;;;6.65;6.15;;;;;;;;;;5075785;28;20176;-75
2021/05/26 11:36:41;;;;;;;7.90;6.35;;;;;;;;;;5063953;28;20184;-76
2021/05/26 11:39:16;;;;;;;6.00;5.40;;;;;;;;;;5062783;28;20184;-75
2021/05/26 11:41:42;;;;;;;6.55;4.72;;;;;;;;;;5063333;28;20183;-77
2021/05/26 11:44:09;;;;;;;5.95;5.53;;;;;;;;;;5066641;28;20212;-76
2021/05/26 11:46:35;;;;;;;6.80;6.20;;;;;;;;;;5050441;28;20212;-74
2021/05/26 11:49:10;;;;;;;8.45;7.13;;;;;;;;;;5049888;28;20180;-74
2021/05/26 11:51:38;;;;;;;8.68;7.95;;;;;;;;;;5074108;28;20625;-76
2021/05/26 11:54:04;;;;;;;8.43;7.55;;;;;;;;;;5060652;28;20177;-74
2021/05/26 11:56:30;;;;;;;12.35;6.90;;;;;;;;;;5066980;28;20183;-76
2021/05/26 11:58:57;;;;;;;7.53;6.72;;;;;;;;;;5052910;28;20267;-76
2021/05/26 12:01:34;;;;;;;6.28;5.75;;;;;;;;;;5061389;28;20233;-74
2021/05/26 12:04:01;;;;;;;7.40;6.73;;;;;;;;;;5076217;28;20171;-75
2021/05/26 12:06:27;;;;;;;6.40;5.80;;;;;;;;;;5061406;28;20471;-74
2021/05/26 12:08:54;;;;;;;5.90;5.40;;;;;;;;;;5065498;28;20883;-75
2021/05/26 12:11:22;;;;;;;7.43;6.73;;;;;;;;;;5078427;28;20500;-75
2021/05/26 12:13:49;;;;;;;7.23;6.63;;;;;;;;;;5048545;28;20415;-75
2021/05/26 12:16:16;;;;;;;7.00;6.40;;;;;;;;;;5058774;28;20466;-75
2021/05/26 12:18:48;;;;;;;7.13;6.50;;;;;;;;;;5049931;28;20189;-75
2021/05/26 12:21:15;;;;;;;6.47;5.97;;;;;;;;;;5057206;28;20459;-76
2021/05/26 12:23:43;;;;;;;6.90;6.37;;;;;;;;;;5048905;28;20415;-74
2021/05/26 12:26:32;;;;;;;5.50;5.00;;;;;;;;;;5055458;28;21133;-74
2021/05/26 12:28:59;;;;;;;4.93;4.53;;;;;;;;;;5052246;28;20423;-75
2021/05/26 12:31:29;;;;;;;5.13;4.70;;;;;;;;;;5049853;28;20499;-76
2021/05/26 12:33:55;;;;;;;7.30;6.30;;;;;;;;;;5060384;28;20427;-74
2021/05/26 12:36:24;;;;;;;6.13;5.57;;;;;;;;;;5051478;28;20411;-74
2021/05/26 12:38:56;;;;;;;5.67;5.17;;;;;;;;;;5069069;28;20414;-77
2021/05/26 12:41:24;;;;;;;6.27;5.70;;;;;;;;;;5054352;28;20537;-74
2021/05/26 12:43:53;;;;;;;6.43;5.90;;;;;;;;;;5055826;28;20964;-74
2021/05/26 12:46:35;;;;;;;7.00;6.40;;;;;;;;;;5077193;28;20500;-75
2021/05/26 12:49:01;;;;;;;7.37;6.80;;;;;;;;;;5052721;28;20430;-75
2021/05/26 12:51:27;;;;;;;7.53;6.90;;;;;;;;;;5060390;28;20418;-74
2021/05/26 12:53:56;;;;;;;7.70;7.10;;;;;;;;;;5055530;28;20429;-75
2021/05/26 12:56:23;;;;;;;6.80;6.20;;;;;;;;;;5066786;28;20416;-76
2021/05/26 12:58:49;;;;;;;6.50;5.90;;;;;;;;;;5055886;28;20431;-76
2021/05/26 13:01:15;;;;;;;6.20;5.60;;;;;;;;;;5057242;28;20487;-75
2021/05/26 13:03:41;;;;;;;5.30;4.70;;;;;;;;;;5050046;28;20496;-76
2021/05/26 13:06:14;;;;;;;8.30;5.93;;;;;;;;;;5059977;28;20465;-76
2021/05/26 13:08:40;;;;;;;6.37;5.77;;;;;;;;;;5051147;28;20427;-77
2021/05/26 13:11:07;;;;;;;5.30;4.90;;;;;;;;;;5059591;28;21258;-77
2021/05/26 13:13:34;;;;;;;5.77;5.17;;;;;;;;;;5054270;28;20415;-77
2021/05/26 13:16:00;;;;;;;5.50;5.00;;;;;;;;;;5070297;28;20948;-74
2021/05/26 13:18:27;;;;;;;5.57;5.07;;;;;;;;;;5048417;28;20423;-75
2021/05/26 13:20:54;;;;;;;6.13;5.60;;;;;;;;;;5055686;28;20564;-75
2021/05/26 13:23:20;;;;;;;3.47;2.60;;;;;;;;;;5048442;28;20419;-74
2021/05/26 13:25:51;;;;;;;2.38;2.17;;;;;;;;;;5054780;28;20488;-73
2021/05/26 13:28:17;;;;;;;2.53;1.50;;;;;;;;;;5052696;28;20184;-76
2021/05/26 13:30:44;;;;;;;2.30;1.67;;;;;;;;;;5056169;28;20641;-74
2021/05/26 13:33:11;;;;;;;3.05;1.88;;;;;;;;;;5052293;28;20193;-73
2021/05/26 13:35:37;;;;;;;3.85;1.88;;;;;;;;;;5054402;28;20509;-76
2021/05/26 13:38:04;;;;;;;2.88;2.03;;;;;;;;;;5069269;28;20186;-77
2021/05/26 13:40:32;;;;;;;3.33;2.20;;;;;;;;;;5072889;28;20200;-74
2021/05/26 13:42:59;;;;;;;3.10;2.30;;;;;;;;;;5061401;28;20181;-75
2021/05/26 13:45:26;;;;;;;2.22;2.03;;;;;;;;;;5071381;28;20191;-75
2021/05/26 13:47:52;;;;;;;8.95;7.50;;;;;;;;;;5064408;28;20177;-75
2021/05/26 13:50:18;;;;;;;3.92;2.95;;;;;;;;;;5052896;28;20197;-78
2021/05/26 13:52:45;;;;;;;2.70;2.30;;;;;;;;;;5057616;28;20275;-76
2021/05/26 13:55:12;;;;;;;3.72;3.42;;;;;;;;;;5066969;28;20250;-75
2021/05/26 13:57:38;;;;;;;2.47;2.03;;;;;;;;;;5068282;28;20168;-75
2021/05/26 14:00:08;;;;;;;2.63;2.42;;;;;;;;;;5071927;28;20200;-74
2021/05/26 14:02:34;;;;;;;3.78;3.47;;;;;;;;;;5064427;28;20208;-75
2021/05/26 14:05:00;;;;;;;4.65;2.63;;;;;;;;;;5067310;28;20574;-75
2021/05/26 14:07:27;;;;;;;3.15;2.85;;;;;;;;;;5080015;28;20747;-75
2021/05/26 14:09:54;;;;;;;3.88;3.50;;;;;;;;;;5058926;28;20707;-77
2021/05/26 14:12:20;;;;;;;4.95;3.85;;;;;;;;;;5057443;28;20283;-76
2021/05/26 14:14:46;;;;;;;4.10;3.75;;;;;;;;;;5087386;28;20644;-74
2021/05/26 14:17:12;;;;;;;5.72;4.10;;;;;;;;;;5073069;28;20167;-74
2021/05/26 14:19:38;;;;;;;5.30;4.10;;;;;;;;;;5063500;28;20681;-75
2021/05/26 14:22:07;;;;;;;4.43;4.03;;;;;;;;;;5082955;28;20448;-76
2021/05/26 14:24:33;;;;;;;4.20;3.80;;;;;;;;;;5082870;28;20776;-73
2021/05/26 14:26:59;;;;;;;7.60;6.85;;;;;;;;;;5067799;28;20195;-76